sensor_id;sensor_type;location;lat;lon;timestamp;P1;durP1;ratioP1;P2;durP2;ratioP2
40314;SDS011;26021;45.640;11.302;2022-12-29T00:01:31;29.33;;;21.17;;
40314;SDS011;26021;45.640;11.302;2022-12-29T00:03:58;30.25;;;21.27;;
40314;SDS011;26021;45.640;11.302;2022-12-29T00:06:24;25.90;;;19.75;;
40314;SDS011;26021;45.640;11.302;2022-12-29T00:08:49;29.00;;;21.33;;
40314;SDS011;26021;45.640;11.302;2022-12-29T00:11:19;28.52;;;21.00;;
40314;SDS011;26021;45.640;11.302;2022-12-29T00:13:46;28.73;;;20.88;;
40314;SDS011;26021;45.640;11.302;2022-12-29T00:16:31;25.63;;;19.67;;
40314;SDS011;26021;45.640;11.302;2022-12-29T00:18:57;25.67;;;19.55;;
40314;SDS011;26021;45.640;11.302;2022-12-29T00:21:23;33.20;;;22.55;;
40314;SDS011;26021;45.640;11.302;2022-12-29T00:24:12;31.83;;;21.38;;
40314;SDS011;26021;45.640;11.302;2022-12-29T00:26:53;28.33;;;20.45;;
40314;SDS011;26021;45.640;11.302;2022-12-29T00:29:41;29.73;;;20.50;;
40314;SDS011;26021;45.640;11.302;2022-12-29T00:32:25;28.33;;;20.73;;
40314;SDS011;26021;45.640;11.302;2022-12-29T00:35:09;30.73;;;20.57;;
40314;SDS011;26021;45.640;11.302;2022-12-29T00:37:46;27.13;;;20.40;;
40314;SDS011;26021;45.640;11.302;2022-12-29T00:40:31;27.13;;;19.02;;
40314;SDS011;26021;45.640;11.302;2022-12-29T00:43:15;26.27;;;19.58;;
40314;SDS011;26021;45.640;11.302;2022-12-29T00:45:59;24.63;;;18.88;;
40314;SDS011;26021;45.640;11.302;2022-12-29T00:48:25;62.70;;;41.53;;
40314;SDS011;26021;45.640;11.302;2022-12-29T00:51:09;30.42;;;22.33;;
40314;SDS011;26021;45.640;11.302;2022-12-29T00:53:34;29.67;;;20.45;;
40314;SDS011;26021;45.640;11.302;2022-12-29T00:56:00;27.77;;;19.00;;
40314;SDS011;26021;45.640;11.302;2022-12-29T00:58:29;24.20;;;18.35;;
40314;SDS011;26021;45.640;11.302;2022-12-29T01:01:05;26.58;;;19.05;;
40314;SDS011;26021;45.640;11.302;2022-12-29T01:03:32;28.90;;;20.92;;
40314;SDS011;26021;45.640;11.302;2022-12-29T01:06:02;27.83;;;21.42;;
40314;SDS011;26021;45.640;11.302;2022-12-29T01:08:29;27.98;;;20.23;;
40314;SDS011;26021;45.640;11.302;2022-12-29T01:11:02;28.45;;;20.02;;
40314;SDS011;26021;45.640;11.302;2022-12-29T01:13:29;28.25;;;19.40;;
40314;SDS011;26021;45.640;11.302;2022-12-29T01:15:55;27.42;;;19.10;;
40314;SDS011;26021;45.640;11.302;2022-12-29T01:18:21;28.20;;;19.48;;
40314;SDS011;26021;45.640;11.302;2022-12-29T01:20:47;28.00;;;20.58;;
40314;SDS011;26021;45.640;11.302;2022-12-29T01:23:12;29.77;;;20.27;;
40314;SDS011;26021;45.640;11.302;2022-12-29T01:25:38;32.22;;;22.05;;
40314;SDS011;26021;45.640;11.302;2022-12-29T01:28:03;30.75;;;21.98;;
40314;SDS011;26021;45.640;11.302;2022-12-29T01:30:29;30.98;;;21.25;;
40314;SDS011;26021;45.640;11.302;2022-12-29T01:32:54;30.67;;;22.58;;
40314;SDS011;26021;45.640;11.302;2022-12-29T01:35:20;27.75;;;20.05;;
40314;SDS011;26021;45.640;11.302;2022-12-29T01:37:46;28.95;;;20.25;;
40314;SDS011;26021;45.640;11.302;2022-12-29T01:40:11;30.48;;;19.95;;
40314;SDS011;26021;45.640;11.302;2022-12-29T01:42:37;29.08;;;19.75;;
40314;SDS011;26021;45.640;11.302;2022-12-29T01:45:04;28.92;;;19.88;;
40314;SDS011;26021;45.640;11.302;2022-12-29T01:50:09;30.15;;;19.98;;
40314;SDS011;26021;45.640;11.302;2022-12-29T01:53:07;27.05;;;19.42;;
40314;SDS011;26021;45.640;11.302;2022-12-29T01:55:40;30.08;;;19.60;;
40314;SDS011;26021;45.640;11.302;2022-12-29T01:58:09;29.92;;;20.20;;
40314;SDS011;26021;45.640;11.302;2022-12-29T02:00:37;26.73;;;19.65;;
40314;SDS011;26021;45.640;11.302;2022-12-29T02:03:02;27.55;;;19.83;;
40314;SDS011;26021;45.640;11.302;2022-12-29T02:05:48;28.35;;;19.40;;
40314;SDS011;26021;45.640;11.302;2022-12-29T02:08:18;25.15;;;18.48;;
40314;SDS011;26021;45.640;11.302;2022-12-29T02:10:47;24.45;;;18.55;;
40314;SDS011;26021;45.640;11.302;2022-12-29T02:13:15;27.38;;;18.98;;
40314;SDS011;26021;45.640;11.302;2022-12-29T02:29:48;33.30;;;20.48;;
40314;SDS011;26021;45.640;11.302;2022-12-29T02:46:10;23.23;;;17.13;;
40314;SDS011;26021;45.640;11.302;2022-12-29T02:48:48;22.50;;;17.15;;
40314;SDS011;26021;45.640;11.302;2022-12-29T02:51:27;25.20;;;17.77;;
40314;SDS011;26021;45.640;11.302;2022-12-29T02:54:03;23.75;;;17.20;;
40314;SDS011;26021;45.640;11.302;2022-12-29T02:56:47;28.87;;;17.90;;
40314;SDS011;26021;45.640;11.302;2022-12-29T02:59:12;23.75;;;17.65;;
40314;SDS011;26021;45.640;11.302;2022-12-29T03:07:32;27.25;;;19.55;;
40314;SDS011;26021;45.640;11.302;2022-12-29T03:16:25;23.45;;;17.95;;
40314;SDS011;26021;45.640;11.302;2022-12-29T03:19:02;24.65;;;18.10;;
40314;SDS011;26021;45.640;11.302;2022-12-29T03:24:32;27.30;;;18.75;;
40314;SDS011;26021;45.640;11.302;2022-12-29T03:27:02;27.48;;;18.08;;
40314;SDS011;26021;45.640;11.302;2022-12-29T03:29:32;25.40;;;17.38;;
40314;SDS011;26021;45.640;11.302;2022-12-29T03:32:02;26.08;;;18.77;;
40314;SDS011;26021;45.640;11.302;2022-12-29T03:34:29;25.92;;;17.98;;
40314;SDS011;26021;45.640;11.302;2022-12-29T03:37:05;25.02;;;18.90;;
40314;SDS011;26021;45.640;11.302;2022-12-29T03:39:35;26.33;;;19.20;;
40314;SDS011;26021;45.640;11.302;2022-12-29T03:42:02;27.63;;;18.83;;
40314;SDS011;26021;45.640;11.302;2022-12-29T03:44:37;26.90;;;19.30;;
40314;SDS011;26021;45.640;11.302;2022-12-29T03:47:06;27.50;;;19.48;;
40314;SDS011;26021;45.640;11.302;2022-12-29T03:49:32;25.33;;;19.40;;
40314;SDS011;26021;45.640;11.302;2022-12-29T03:51:58;26.52;;;19.33;;
40314;SDS011;26021;45.640;11.302;2022-12-29T03:54:23;26.27;;;19.40;;
40314;SDS011;26021;45.640;11.302;2022-12-29T03:56:49;26.95;;;20.27;;
40314;SDS011;26021;45.640;11.302;2022-12-29T03:59:15;28.63;;;19.95;;
40314;SDS011;26021;45.640;11.302;2022-12-29T04:01:40;28.83;;;20.95;;
40314;SDS011;26021;45.640;11.302;2022-12-29T04:04:06;27.02;;;20.05;;
40314;SDS011;26021;45.640;11.302;2022-12-29T04:06:31;29.77;;;21.60;;
40314;SDS011;26021;45.640;11.302;2022-12-29T04:08:56;27.25;;;20.02;;
40314;SDS011;26021;45.640;11.302;2022-12-29T04:11:24;29.85;;;21.23;;
40314;SDS011;26021;45.640;11.302;2022-12-29T04:13:51;30.17;;;20.52;;
40314;SDS011;26021;45.640;11.302;2022-12-29T04:16:16;30.45;;;21.85;;
40314;SDS011;26021;45.640;11.302;2022-12-29T04:18:41;30.80;;;22.15;;
40314;SDS011;26021;45.640;11.302;2022-12-29T04:21:07;30.50;;;22.35;;
40314;SDS011;26021;45.640;11.302;2022-12-29T04:23:35;27.15;;;20.13;;
40314;SDS011;26021;45.640;11.302;2022-12-29T04:26:02;30.13;;;21.63;;
40314;SDS011;26021;45.640;11.302;2022-12-29T04:28:28;32.65;;;23.10;;
40314;SDS011;26021;45.640;11.302;2022-12-29T04:30:54;36.17;;;24.58;;
40314;SDS011;26021;45.640;11.302;2022-12-29T04:33:20;33.70;;;22.73;;
40314;SDS011;26021;45.640;11.302;2022-12-29T04:35:46;31.88;;;22.60;;
40314;SDS011;26021;45.640;11.302;2022-12-29T04:38:12;35.50;;;22.63;;
40314;SDS011;26021;45.640;11.302;2022-12-29T04:40:38;33.33;;;24.05;;
40314;SDS011;26021;45.640;11.302;2022-12-29T04:43:05;31.65;;;22.45;;
40314;SDS011;26021;45.640;11.302;2022-12-29T04:45:31;32.42;;;22.50;;
40314;SDS011;26021;45.640;11.302;2022-12-29T04:47:57;33.20;;;22.92;;
40314;SDS011;26021;45.640;11.302;2022-12-29T04:50:22;33.25;;;22.05;;
40314;SDS011;26021;45.640;11.302;2022-12-29T04:52:48;29.80;;;20.35;;
40314;SDS011;26021;45.640;11.302;2022-12-29T04:55:14;32.85;;;22.40;;
40314;SDS011;26021;45.640;11.302;2022-12-29T04:57:39;31.15;;;21.17;;
40314;SDS011;26021;45.640;11.302;2022-12-29T05:00:05;38.55;;;22.45;;
40314;SDS011;26021;45.640;11.302;2022-12-29T05:02:31;32.00;;;22.10;;
40314;SDS011;26021;45.640;11.302;2022-12-29T05:04:57;32.78;;;21.95;;
40314;SDS011;26021;45.640;11.302;2022-12-29T05:07:22;31.95;;;19.83;;
40314;SDS011;26021;45.640;11.302;2022-12-29T05:09:48;27.55;;;19.65;;
40314;SDS011;26021;45.640;11.302;2022-12-29T05:12:13;31.40;;;21.85;;
40314;SDS011;26021;45.640;11.302;2022-12-29T05:14:38;28.85;;;20.58;;
40314;SDS011;26021;45.640;11.302;2022-12-29T05:17:04;28.48;;;21.67;;
40314;SDS011;26021;45.640;11.302;2022-12-29T05:19:29;33.17;;;22.15;;
40314;SDS011;26021;45.640;11.302;2022-12-29T05:21:55;32.72;;;22.45;;
40314;SDS011;26021;45.640;11.302;2022-12-29T05:24:21;36.95;;;22.85;;
40314;SDS011;26021;45.640;11.302;2022-12-29T05:26:46;35.58;;;22.52;;
40314;SDS011;26021;45.640;11.302;2022-12-29T05:29:12;35.75;;;24.40;;
40314;SDS011;26021;45.640;11.302;2022-12-29T05:31:37;32.72;;;23.23;;
40314;SDS011;26021;45.640;11.302;2022-12-29T05:34:03;39.85;;;26.02;;
40314;SDS011;26021;45.640;11.302;2022-12-29T05:36:28;35.03;;;24.55;;
40314;SDS011;26021;45.640;11.302;2022-12-29T05:38:54;35.10;;;23.60;;
40314;SDS011;26021;45.640;11.302;2022-12-29T05:41:19;34.58;;;23.40;;
40314;SDS011;26021;45.640;11.302;2022-12-29T05:43:45;35.70;;;23.42;;
40314;SDS011;26021;45.640;11.302;2022-12-29T05:46:10;32.95;;;22.70;;
40314;SDS011;26021;45.640;11.302;2022-12-29T05:48:36;36.58;;;24.05;;
40314;SDS011;26021;45.640;11.302;2022-12-29T05:51:01;36.38;;;24.45;;
40314;SDS011;26021;45.640;11.302;2022-12-29T05:53:27;37.63;;;25.13;;
40314;SDS011;26021;45.640;11.302;2022-12-29T05:55:52;37.10;;;25.77;;
40314;SDS011;26021;45.640;11.302;2022-12-29T05:58:18;37.00;;;25.27;;
40314;SDS011;26021;45.640;11.302;2022-12-29T06:00:43;36.97;;;24.23;;
40314;SDS011;26021;45.640;11.302;2022-12-29T06:03:09;40.33;;;27.40;;
40314;SDS011;26021;45.640;11.302;2022-12-29T06:05:34;39.03;;;25.52;;
40314;SDS011;26021;45.640;11.302;2022-12-29T06:08:00;36.80;;;25.00;;
40314;SDS011;26021;45.640;11.302;2022-12-29T06:10:25;34.42;;;24.60;;
40314;SDS011;26021;45.640;11.302;2022-12-29T06:12:51;38.28;;;25.67;;
40314;SDS011;26021;45.640;11.302;2022-12-29T06:15:16;39.22;;;26.52;;
40314;SDS011;26021;45.640;11.302;2022-12-29T06:17:42;40.35;;;28.02;;
40314;SDS011;26021;45.640;11.302;2022-12-29T06:20:09;40.55;;;28.73;;
40314;SDS011;26021;45.640;11.302;2022-12-29T06:22:35;43.45;;;27.75;;
40314;SDS011;26021;45.640;11.302;2022-12-29T06:25:01;42.25;;;27.65;;
40314;SDS011;26021;45.640;11.302;2022-12-29T06:27:27;41.08;;;27.85;;
40314;SDS011;26021;45.640;11.302;2022-12-29T06:29:53;42.70;;;27.77;;
40314;SDS011;26021;45.640;11.302;2022-12-29T06:32:18;43.90;;;28.00;;
40314;SDS011;26021;45.640;11.302;2022-12-29T06:34:44;42.90;;;28.42;;
40314;SDS011;26021;45.640;11.302;2022-12-29T06:37:09;42.20;;;27.80;;
40314;SDS011;26021;45.640;11.302;2022-12-29T06:39:35;40.58;;;26.73;;
40314;SDS011;26021;45.640;11.302;2022-12-29T06:42:01;41.25;;;26.88;;
40314;SDS011;26021;45.640;11.302;2022-12-29T06:44:26;46.05;;;28.08;;
40314;SDS011;26021;45.640;11.302;2022-12-29T06:46:52;40.72;;;27.83;;
40314;SDS011;26021;45.640;11.302;2022-12-29T06:49:17;39.40;;;26.65;;
40314;SDS011;26021;45.640;11.302;2022-12-29T06:51:43;40.05;;;27.50;;
40314;SDS011;26021;45.640;11.302;2022-12-29T06:54:08;43.30;;;27.00;;
40314;SDS011;26021;45.640;11.302;2022-12-29T06:56:34;42.28;;;28.40;;
40314;SDS011;26021;45.640;11.302;2022-12-29T06:58:59;41.97;;;28.00;;
40314;SDS011;26021;45.640;11.302;2022-12-29T07:01:28;45.30;;;30.80;;
40314;SDS011;26021;45.640;11.302;2022-12-29T07:03:53;42.90;;;28.85;;
40314;SDS011;26021;45.640;11.302;2022-12-29T07:06:19;43.05;;;27.42;;
40314;SDS011;26021;45.640;11.302;2022-12-29T07:08:45;41.33;;;28.75;;
40314;SDS011;26021;45.640;11.302;2022-12-29T07:11:10;40.70;;;28.40;;
40314;SDS011;26021;45.640;11.302;2022-12-29T07:13:36;43.40;;;28.20;;
40314;SDS011;26021;45.640;11.302;2022-12-29T07:16:07;39.60;;;27.00;;
40314;SDS011;26021;45.640;11.302;2022-12-29T07:18:34;48.83;;;31.10;;
40314;SDS011;26021;45.640;11.302;2022-12-29T07:21:00;56.35;;;36.95;;
40314;SDS011;26021;45.640;11.302;2022-12-29T07:23:27;78.05;;;60.15;;
40314;SDS011;26021;45.640;11.302;2022-12-29T07:26:01;50.90;;;34.13;;
40314;SDS011;26021;45.640;11.302;2022-12-29T07:28:32;61.85;;;46.22;;
40314;SDS011;26021;45.640;11.302;2022-12-29T07:30:58;45.33;;;32.78;;
40314;SDS011;26021;45.640;11.302;2022-12-29T07:33:24;46.53;;;31.02;;
40314;SDS011;26021;45.640;11.302;2022-12-29T07:35:50;46.95;;;31.90;;
40314;SDS011;26021;45.640;11.302;2022-12-29T07:38:16;47.90;;;32.30;;
40314;SDS011;26021;45.640;11.302;2022-12-29T07:40:42;49.67;;;33.00;;
40314;SDS011;26021;45.640;11.302;2022-12-29T07:43:08;50.50;;;33.22;;
40314;SDS011;26021;45.640;11.302;2022-12-29T07:45:33;58.15;;;36.10;;
40314;SDS011;26021;45.640;11.302;2022-12-29T07:47:59;62.08;;;39.30;;
40314;SDS011;26021;45.640;11.302;2022-12-29T07:50:24;59.38;;;38.60;;
40314;SDS011;26021;45.640;11.302;2022-12-29T07:52:50;62.80;;;40.38;;
40314;SDS011;26021;45.640;11.302;2022-12-29T07:55:15;67.97;;;42.83;;
40314;SDS011;26021;45.640;11.302;2022-12-29T07:57:42;70.03;;;41.45;;
40314;SDS011;26021;45.640;11.302;2022-12-29T08:00:13;66.57;;;42.42;;
40314;SDS011;26021;45.640;11.302;2022-12-29T08:02:42;71.22;;;41.75;;
40314;SDS011;26021;45.640;11.302;2022-12-29T08:05:07;69.57;;;40.53;;
40314;SDS011;26021;45.640;11.302;2022-12-29T08:07:33;69.32;;;42.90;;
40314;SDS011;26021;45.640;11.302;2022-12-29T08:09:58;67.25;;;42.38;;
40314;SDS011;26021;45.640;11.302;2022-12-29T08:12:24;58.30;;;38.30;;
40314;SDS011;26021;45.640;11.302;2022-12-29T08:14:49;66.18;;;37.22;;
40314;SDS011;26021;45.640;11.302;2022-12-29T08:17:15;61.10;;;37.67;;
40314;SDS011;26021;45.640;11.302;2022-12-29T08:19:40;56.55;;;36.10;;
40314;SDS011;26021;45.640;11.302;2022-12-29T08:22:07;60.67;;;39.75;;
40314;SDS011;26021;45.640;11.302;2022-12-29T08:24:33;59.30;;;39.05;;
40314;SDS011;26021;45.640;11.302;2022-12-29T08:26:58;55.67;;;38.40;;
40314;SDS011;26021;45.640;11.302;2022-12-29T08:29:24;70.45;;;44.78;;
40314;SDS011;26021;45.640;11.302;2022-12-29T08:31:49;62.75;;;41.90;;
40314;SDS011;26021;45.640;11.302;2022-12-29T08:34:14;65.22;;;40.28;;
40314;SDS011;26021;45.640;11.302;2022-12-29T08:36:40;63.72;;;41.25;;
40314;SDS011;26021;45.640;11.302;2022-12-29T08:39:06;59.72;;;39.38;;
40314;SDS011;26021;45.640;11.302;2022-12-29T08:41:31;59.33;;;38.38;;
40314;SDS011;26021;45.640;11.302;2022-12-29T08:43:57;58.40;;;38.55;;
40314;SDS011;26021;45.640;11.302;2022-12-29T08:46:22;59.17;;;38.72;;
40314;SDS011;26021;45.640;11.302;2022-12-29T08:48:48;59.08;;;39.88;;
40314;SDS011;26021;45.640;11.302;2022-12-29T08:51:13;57.85;;;38.38;;
40314;SDS011;26021;45.640;11.302;2022-12-29T08:53:39;54.70;;;37.55;;
40314;SDS011;26021;45.640;11.302;2022-12-29T08:56:04;54.40;;;35.60;;
40314;SDS011;26021;45.640;11.302;2022-12-29T08:58:31;51.72;;;34.28;;
40314;SDS011;26021;45.640;11.302;2022-12-29T09:00:57;55.88;;;37.22;;
40314;SDS011;26021;45.640;11.302;2022-12-29T09:03:23;53.63;;;35.42;;
40314;SDS011;26021;45.640;11.302;2022-12-29T09:05:53;56.70;;;36.38;;
40314;SDS011;26021;45.640;11.302;2022-12-29T09:08:19;56.58;;;35.58;;
40314;SDS011;26021;45.640;11.302;2022-12-29T09:10:45;56.22;;;35.70;;
40314;SDS011;26021;45.640;11.302;2022-12-29T09:13:11;52.58;;;36.63;;
40314;SDS011;26021;45.640;11.302;2022-12-29T09:15:38;51.67;;;35.67;;
40314;SDS011;26021;45.640;11.302;2022-12-29T09:18:04;52.95;;;35.70;;
40314;SDS011;26021;45.640;11.302;2022-12-29T09:20:30;52.90;;;36.35;;
40314;SDS011;26021;45.640;11.302;2022-12-29T09:22:55;49.72;;;34.92;;
40314;SDS011;26021;45.640;11.302;2022-12-29T09:25:21;50.78;;;34.85;;
40314;SDS011;26021;45.640;11.302;2022-12-29T09:27:49;53.50;;;35.72;;
40314;SDS011;26021;45.640;11.302;2022-12-29T09:30:17;59.65;;;39.30;;
40314;SDS011;26021;45.640;11.302;2022-12-29T09:32:43;57.90;;;38.42;;
40314;SDS011;26021;45.640;11.302;2022-12-29T09:35:08;57.28;;;37.85;;
40314;SDS011;26021;45.640;11.302;2022-12-29T09:37:34;54.53;;;36.28;;
40314;SDS011;26021;45.640;11.302;2022-12-29T09:39:59;57.42;;;37.78;;
40314;SDS011;26021;45.640;11.302;2022-12-29T09:44:56;52.47;;;35.88;;
40314;SDS011;26021;45.640;11.302;2022-12-29T09:47:32;51.38;;;35.38;;
40314;SDS011;26021;45.640;11.302;2022-12-29T09:50:02;52.83;;;37.72;;
40314;SDS011;26021;45.640;11.302;2022-12-29T09:52:37;62.33;;;42.20;;
40314;SDS011;26021;45.640;11.302;2022-12-29T09:55:21;62.20;;;39.60;;
40314;SDS011;26021;45.640;11.302;2022-12-29T09:58:02;59.88;;;38.92;;
40314;SDS011;26021;45.640;11.302;2022-12-29T10:00:37;55.25;;;39.08;;
40314;SDS011;26021;45.640;11.302;2022-12-29T10:03:13;59.35;;;39.45;;
40314;SDS011;26021;45.640;11.302;2022-12-29T10:08:24;52.72;;;35.65;;
40314;SDS011;26021;45.640;11.302;2022-12-29T10:16:42;53.38;;;36.33;;
40314;SDS011;26021;45.640;11.302;2022-12-29T10:22:08;53.95;;;35.00;;
40314;SDS011;26021;45.640;11.302;2022-12-29T10:25:02;50.67;;;35.05;;
40314;SDS011;26021;45.640;11.302;2022-12-29T10:27:36;49.72;;;35.15;;
40314;SDS011;26021;45.640;11.302;2022-12-29T10:30:02;51.28;;;33.55;;
40314;SDS011;26021;45.640;11.302;2022-12-29T10:32:38;52.58;;;34.03;;
40314;SDS011;26021;45.640;11.302;2022-12-29T10:42:57;50.63;;;34.47;;
40314;SDS011;26021;45.640;11.302;2022-12-29T10:45:27;51.92;;;34.35;;
40314;SDS011;26021;45.640;11.302;2022-12-29T10:48:03;52.70;;;35.40;;
40314;SDS011;26021;45.640;11.302;2022-12-29T10:50:38;53.60;;;35.28;;
40314;SDS011;26021;45.640;11.302;2022-12-29T10:53:07;50.33;;;35.25;;
40314;SDS011;26021;45.640;11.302;2022-12-29T10:55:43;45.00;;;32.88;;
40314;SDS011;26021;45.640;11.302;2022-12-29T10:58:11;47.10;;;32.85;;
40314;SDS011;26021;45.640;11.302;2022-12-29T11:00:38;52.05;;;35.08;;
40314;SDS011;26021;45.640;11.302;2022-12-29T11:05:56;47.88;;;32.67;;
40314;SDS011;26021;45.640;11.302;2022-12-29T11:08:36;48.70;;;34.08;;
40314;SDS011;26021;45.640;11.302;2022-12-29T11:11:05;49.78;;;34.03;;
40314;SDS011;26021;45.640;11.302;2022-12-29T11:13:49;46.50;;;32.03;;
40314;SDS011;26021;45.640;11.302;2022-12-29T11:16:30;50.60;;;34.22;;
40314;SDS011;26021;45.640;11.302;2022-12-29T11:18:59;45.70;;;33.30;;
40314;SDS011;26021;45.640;11.302;2022-12-29T11:21:37;52.42;;;34.17;;
40314;SDS011;26021;45.640;11.302;2022-12-29T11:24:17;47.53;;;34.42;;
40314;SDS011;26021;45.640;11.302;2022-12-29T11:26:45;49.90;;;33.78;;
40314;SDS011;26021;45.640;11.302;2022-12-29T11:29:20;51.15;;;34.55;;
40314;SDS011;26021;45.640;11.302;2022-12-29T11:31:57;50.58;;;34.30;;
40314;SDS011;26021;45.640;11.302;2022-12-29T11:34:30;47.58;;;32.83;;
40314;SDS011;26021;45.640;11.302;2022-12-29T11:37:02;49.65;;;34.08;;
40314;SDS011;26021;45.640;11.302;2022-12-29T11:40:15;45.20;;;33.03;;
40314;SDS011;26021;45.640;11.302;2022-12-29T11:42:20;45.03;;;32.53;;
40314;SDS011;26021;45.640;11.302;2022-12-29T11:44:49;49.15;;;34.72;;
40314;SDS011;26021;45.640;11.302;2022-12-29T11:47:21;50.40;;;34.90;;
40314;SDS011;26021;45.640;11.302;2022-12-29T11:49:54;50.08;;;32.90;;
40314;SDS011;26021;45.640;11.302;2022-12-29T11:52:24;69.15;;;48.28;;
40314;SDS011;26021;45.640;11.302;2022-12-29T11:54:52;59.95;;;39.70;;
40314;SDS011;26021;45.640;11.302;2022-12-29T11:57:19;48.00;;;32.72;;
40314;SDS011;26021;45.640;11.302;2022-12-29T11:59:50;49.38;;;34.13;;
40314;SDS011;26021;45.640;11.302;2022-12-29T12:05:20;49.28;;;32.47;;
40314;SDS011;26021;45.640;11.302;2022-12-29T12:08:17;49.22;;;32.47;;
40314;SDS011;26021;45.640;11.302;2022-12-29T12:10:44;46.45;;;32.35;;
40314;SDS011;26021;45.640;11.302;2022-12-29T12:15:54;49.45;;;33.10;;
40314;SDS011;26021;45.640;11.302;2022-12-29T12:21:27;49.30;;;33.60;;
40314;SDS011;26021;45.640;11.302;2022-12-29T12:24:03;50.30;;;34.00;;
40314;SDS011;26021;45.640;11.302;2022-12-29T12:26:35;46.92;;;29.92;;
40314;SDS011;26021;45.640;11.302;2022-12-29T12:34:16;40.47;;;27.27;;
40314;SDS011;26021;45.640;11.302;2022-12-29T12:39:49;38.63;;;26.90;;
40314;SDS011;26021;45.640;11.302;2022-12-29T12:42:23;38.80;;;26.92;;
40314;SDS011;26021;45.640;11.302;2022-12-29T12:45:03;37.00;;;25.98;;
40314;SDS011;26021;45.640;11.302;2022-12-29T12:50:26;37.45;;;26.42;;
40314;SDS011;26021;45.640;11.302;2022-12-29T12:57:57;36.70;;;26.10;;
40314;SDS011;26021;45.640;11.302;2022-12-29T13:25:40;36.83;;;26.77;;
40314;SDS011;26021;45.640;11.302;2022-12-29T13:28:25;39.30;;;27.80;;
40314;SDS011;26021;45.640;11.302;2022-12-29T13:30:57;41.97;;;27.52;;
40314;SDS011;26021;45.640;11.302;2022-12-29T13:33:56;41.28;;;28.20;;
40314;SDS011;26021;45.640;11.302;2022-12-29T13:36:35;36.65;;;26.42;;
40314;SDS011;26021;45.640;11.302;2022-12-29T13:41:57;41.13;;;27.75;;
40314;SDS011;26021;45.640;11.302;2022-12-29T13:44:26;41.10;;;28.45;;
40314;SDS011;26021;45.640;11.302;2022-12-29T13:46:56;37.20;;;27.10;;
40314;SDS011;26021;45.640;11.302;2022-12-29T13:49:25;35.25;;;26.20;;
40314;SDS011;26021;45.640;11.302;2022-12-29T13:52:12;40.78;;;27.67;;
40314;SDS011;26021;45.640;11.302;2022-12-29T13:54:51;42.33;;;28.98;;
40314;SDS011;26021;45.640;11.302;2022-12-29T13:57:41;41.55;;;30.23;;
40314;SDS011;26021;45.640;11.302;2022-12-29T14:00:16;40.85;;;28.60;;
40314;SDS011;26021;45.640;11.302;2022-12-29T14:07:45;41.50;;;29.00;;
40314;SDS011;26021;45.640;11.302;2022-12-29T14:10:28;42.05;;;29.95;;
40314;SDS011;26021;45.640;11.302;2022-12-29T14:15:50;60.65;;;40.83;;
40314;SDS011;26021;45.640;11.302;2022-12-29T14:18:21;37.60;;;29.40;;
40314;SDS011;26021;45.640;11.302;2022-12-29T14:20:53;44.53;;;29.67;;
40314;SDS011;26021;45.640;11.302;2022-12-29T14:23:42;38.95;;;29.08;;
40314;SDS011;26021;45.640;11.302;2022-12-29T14:26:14;38.33;;;28.77;;
40314;SDS011;26021;45.640;11.302;2022-12-29T14:28:44;42.92;;;30.23;;
40314;SDS011;26021;45.640;11.302;2022-12-29T14:33:40;42.45;;;31.20;;
40314;SDS011;26021;45.640;11.302;2022-12-29T14:36:53;40.50;;;28.73;;
40314;SDS011;26021;45.640;11.302;2022-12-29T14:39:38;40.30;;;28.75;;
40314;SDS011;26021;45.640;11.302;2022-12-29T14:44:45;38.97;;;28.90;;
40314;SDS011;26021;45.640;11.302;2022-12-29T14:49:45;38.15;;;28.25;;
40314;SDS011;26021;45.640;11.302;2022-12-29T14:52:15;39.05;;;29.08;;
40314;SDS011;26021;45.640;11.302;2022-12-29T14:54:49;37.20;;;27.48;;
40314;SDS011;26021;45.640;11.302;2022-12-29T14:59:53;40.35;;;30.92;;
40314;SDS011;26021;45.640;11.302;2022-12-29T15:02:23;39.65;;;30.08;;
40314;SDS011;26021;45.640;11.302;2022-12-29T15:04:53;43.95;;;30.88;;
40314;SDS011;26021;45.640;11.302;2022-12-29T15:07:24;37.85;;;29.73;;
40314;SDS011;26021;45.640;11.302;2022-12-29T15:09:56;41.80;;;29.73;;
40314;SDS011;26021;45.640;11.302;2022-12-29T15:17:27;44.85;;;30.92;;
40314;SDS011;26021;45.640;11.302;2022-12-29T15:19:53;45.05;;;31.45;;
40314;SDS011;26021;45.640;11.302;2022-12-29T15:22:19;46.58;;;32.35;;
40314;SDS011;26021;45.640;11.302;2022-12-29T15:24:45;41.17;;;31.40;;
40314;SDS011;26021;45.640;11.302;2022-12-29T15:27:15;43.78;;;31.90;;
40314;SDS011;26021;45.640;11.302;2022-12-29T15:29:44;41.72;;;31.08;;
40314;SDS011;26021;45.640;11.302;2022-12-29T15:32:26;41.92;;;32.47;;
40314;SDS011;26021;45.640;11.302;2022-12-29T15:34:54;43.80;;;32.05;;
40314;SDS011;26021;45.640;11.302;2022-12-29T15:39:58;48.92;;;33.72;;
40314;SDS011;26021;45.640;11.302;2022-12-29T15:42:31;45.25;;;32.45;;
40314;SDS011;26021;45.640;11.302;2022-12-29T15:45:11;43.65;;;31.38;;
40314;SDS011;26021;45.640;11.302;2022-12-29T15:47:38;47.28;;;33.15;;
40314;SDS011;26021;45.640;11.302;2022-12-29T15:50:20;48.17;;;32.72;;
40314;SDS011;26021;45.640;11.302;2022-12-29T15:52:49;44.22;;;33.28;;
40314;SDS011;26021;45.640;11.302;2022-12-29T15:55:31;45.20;;;32.63;;
40314;SDS011;26021;45.640;11.302;2022-12-29T15:58:05;47.75;;;33.47;;
40314;SDS011;26021;45.640;11.302;2022-12-29T16:00:47;48.30;;;33.60;;
40314;SDS011;26021;45.640;11.302;2022-12-29T16:03:15;52.00;;;34.40;;
40314;SDS011;26021;45.640;11.302;2022-12-29T16:05:41;50.60;;;33.97;;
40314;SDS011;26021;45.640;11.302;2022-12-29T16:11:17;48.20;;;34.35;;
40314;SDS011;26021;45.640;11.302;2022-12-29T16:13:48;42.78;;;33.38;;
40314;SDS011;26021;45.640;11.302;2022-12-29T16:16:17;48.70;;;33.92;;
40314;SDS011;26021;45.640;11.302;2022-12-29T16:18:45;44.97;;;32.67;;
40314;SDS011;26021;45.640;11.302;2022-12-29T16:21:16;46.42;;;33.65;;
40314;SDS011;26021;45.640;11.302;2022-12-29T16:23:45;45.70;;;31.75;;
40314;SDS011;26021;45.640;11.302;2022-12-29T16:26:18;48.13;;;33.47;;
40314;SDS011;26021;45.640;11.302;2022-12-29T16:28:47;47.58;;;35.70;;
40314;SDS011;26021;45.640;11.302;2022-12-29T16:31:22;47.58;;;34.22;;
40314;SDS011;26021;45.640;11.302;2022-12-29T16:33:53;49.22;;;34.15;;
40314;SDS011;26021;45.640;11.302;2022-12-29T16:36:33;46.92;;;35.17;;
40314;SDS011;26021;45.640;11.302;2022-12-29T16:41:55;45.47;;;33.63;;
40314;SDS011;26021;45.640;11.302;2022-12-29T16:44:25;45.38;;;34.47;;
40314;SDS011;26021;45.640;11.302;2022-12-29T16:49:36;45.80;;;34.38;;
40314;SDS011;26021;45.640;11.302;2022-12-29T16:52:11;50.65;;;37.47;;
40314;SDS011;26021;45.640;11.302;2022-12-29T16:54:55;49.20;;;36.28;;
40314;SDS011;26021;45.640;11.302;2022-12-29T16:57:26;50.80;;;38.50;;
40314;SDS011;26021;45.640;11.302;2022-12-29T16:59:54;52.08;;;37.65;;
40314;SDS011;26021;45.640;11.302;2022-12-29T17:02:24;51.03;;;37.22;;